createdAt,value
2022-10-13T00:00:00.306Z,7.8
2022-10-13T00:05:00.220Z,7.8
2022-10-13T00:10:00.284Z,7.9
2022-10-13T00:15:00.219Z,7.9
2022-10-13T00:20:00.280Z,7.9
2022-10-13T00:25:00.231Z,8
2022-10-13T00:30:00.258Z,8
2022-10-13T00:35:00.140Z,8
2022-10-13T00:40:00.223Z,8
2022-10-13T00:45:00.142Z,8
2022-10-13T00:50:00.266Z,8.1
2022-10-13T00:55:00.241Z,8
2022-10-13T01:00:00.233Z,8.1
2022-10-13T01:05:00.132Z,8.1
2022-10-13T01:10:00.293Z,8.1
2022-10-13T01:15:00.225Z,8.1
2022-10-13T01:20:00.222Z,8.1
2022-10-13T01:25:00.144Z,8.1
2022-10-13T01:30:00.274Z,8.1
2022-10-13T01:35:00.202Z,8.1
2022-10-13T01:40:00.219Z,8.1
2022-10-13T01:45:00.140Z,8.1
2022-10-13T01:50:00.253Z,8.1
2022-10-13T01:55:00.143Z,8.2
2022-10-13T02:00:00.228Z,8.1
2022-10-13T02:05:00.159Z,8.2
2022-10-13T02:10:00.209Z,8.2
2022-10-13T02:15:00.140Z,8.2
2022-10-13T02:20:00.314Z,8.2
2022-10-13T02:25:00.138Z,8.2
2022-10-13T02:30:00.269Z,8.2
2022-10-13T02:35:00.170Z,8.2
2022-10-13T02:40:00.261Z,8.2
2022-10-13T02:45:00.155Z,8.2
2022-10-13T02:50:00.297Z,8.2
2022-10-13T02:55:00.235Z,8.2
2022-10-13T03:00:00.323Z,8.2
2022-10-13T03:05:00.247Z,8.2
2022-10-13T03:10:00.265Z,8.3
2022-10-13T03:15:00.201Z,8.3
2022-10-13T03:20:00.280Z,8.3
2022-10-13T03:25:00.250Z,8.3
2022-10-13T03:30:00.297Z,8.3
2022-10-13T03:35:00.256Z,8.4
2022-10-13T03:40:00.255Z,8.4
2022-10-13T03:45:00.268Z,8.4
2022-10-13T03:50:00.271Z,8.4
2022-10-13T03:55:00.241Z,8.4
2022-10-13T04:00:00.294Z,8.4
2022-10-13T04:05:00.257Z,8.4
2022-10-13T04:10:00.294Z,8.4
2022-10-13T04:15:00.281Z,8.4
2022-10-13T04:20:00.270Z,8.4
2022-10-13T04:25:00.275Z,8.5
2022-10-13T04:30:00.327Z,8.5
2022-10-13T04:35:00.208Z,8.5
2022-10-13T04:40:00.313Z,8.5
2022-10-13T04:45:00.236Z,8.5
2022-10-13T04:50:00.287Z,8.5
2022-10-13T04:55:00.246Z,8.5
2022-10-13T05:00:00.260Z,8.5
2022-10-13T05:05:00.230Z,8.5
2022-10-13T05:10:00.273Z,8.5
2022-10-13T05:15:00.224Z,8.5
2022-10-13T05:20:00.255Z,8.5
2022-10-13T05:25:00.198Z,8.5
2022-10-13T05:30:00.280Z,8.5
2022-10-13T05:35:00.249Z,8.5
2022-10-13T05:40:00.262Z,8.5
2022-10-13T05:45:00.193Z,8.6
2022-10-13T05:50:00.246Z,8.6
2022-10-13T05:55:00.257Z,8.6
2022-10-13T06:00:00.327Z,8.6
2022-10-13T06:05:00.269Z,8.6
2022-10-13T06:10:00.236Z,8.6
2022-10-13T06:15:00.254Z,8.7
2022-10-13T06:20:00.273Z,8.7
2022-10-13T06:25:00.198Z,8.7
2022-10-13T06:30:00.265Z,8.7
2022-10-13T06:35:00.232Z,8.7
2022-10-13T06:40:00.298Z,8.7
2022-10-13T06:45:00.220Z,8.8
2022-10-13T06:50:00.224Z,8.8
2022-10-13T06:55:00.250Z,8.8
2022-10-13T07:00:00.338Z,8.8
2022-10-13T07:05:00.257Z,8.9
2022-10-13T07:10:00.284Z,8.9
2022-10-13T07:15:00.278Z,8.9
2022-10-13T07:20:03.696Z,9
2022-10-13T07:25:00.245Z,9
2022-10-13T07:30:00.281Z,9.1
2022-10-13T07:35:00.226Z,9.2
2022-10-13T07:40:00.237Z,9.3
2022-10-13T07:45:00.270Z,9.4
2022-10-13T07:50:00.274Z,9.5
2022-10-13T07:55:00.246Z,9.6
2022-10-13T08:00:00.263Z,9.8
2022-10-13T08:05:00.214Z,9.9
2022-10-13T08:10:00.262Z,10
2022-10-13T08:15:03.405Z,10.2
2022-10-13T08:20:00.268Z,10.4
2022-10-13T08:25:00.280Z,10.6
2022-10-13T08:30:00.344Z,10.7
2022-10-13T08:35:00.225Z,10.8
2022-10-13T08:40:00.300Z,11
2022-10-13T08:45:22.201Z,11.2
2022-10-13T08:50:01.053Z,11.4
2022-10-13T08:55:00.229Z,11.5
2022-10-13T09:00:00.274Z,11.7
2022-10-13T09:05:00.273Z,11.9
2022-10-13T09:10:00.226Z,12
2022-10-13T09:15:00.246Z,12.2
2022-10-13T09:20:00.256Z,12.3
2022-10-13T09:25:00.197Z,12.5
2022-10-13T09:30:00.332Z,12.6
2022-10-13T09:35:00.216Z,12.8
2022-10-13T09:40:00.232Z,12.9
2022-10-13T09:45:00.204Z,13
2022-10-13T09:50:04.833Z,13.1
2022-10-13T09:55:00.195Z,13.1
2022-10-13T10:05:00.231Z,13.4
2022-10-13T10:10:00.239Z,13.5
2022-10-13T10:15:00.294Z,13.7
2022-10-13T10:20:00.235Z,13.8
2022-10-13T10:25:00.272Z,14
2022-10-13T10:30:00.296Z,14.2
2022-10-13T10:35:00.194Z,14.4
2022-10-13T10:40:00.230Z,14.6
2022-10-13T10:45:00.256Z,14.7
2022-10-13T10:50:00.285Z,14.9
2022-10-13T10:55:00.249Z,15.1
2022-10-13T11:00:00.347Z,15.2
2022-10-13T11:05:05.209Z,15.3
2022-10-13T11:10:00.267Z,15.4
2022-10-13T11:15:00.254Z,15.4
2022-10-13T11:20:00.228Z,15.5
2022-10-13T11:25:00.255Z,15.6
2022-10-13T11:30:00.309Z,15.6
2022-10-13T11:35:00.255Z,15.7
2022-10-13T11:40:00.292Z,15.7
2022-10-13T11:45:00.252Z,15.8
2022-10-13T11:50:00.266Z,15.8
2022-10-13T11:55:00.300Z,15.9
2022-10-13T12:00:00.323Z,15.9
2022-10-13T12:05:00.236Z,16
2022-10-13T12:10:00.234Z,16.1
2022-10-13T12:15:04.170Z,16.2
2022-10-13T12:20:00.284Z,16.2
2022-10-13T12:25:00.298Z,16.3
2022-10-13T12:30:00.297Z,16.4
2022-10-13T12:35:00.270Z,16.4
2022-10-13T12:40:00.270Z,16.4
2022-10-13T12:45:00.253Z,16.4
2022-10-13T12:50:00.230Z,16.4
2022-10-13T12:55:00.250Z,16.4
2022-10-13T13:00:00.342Z,16.4
2022-10-13T13:05:00.239Z,16.3
2022-10-13T13:10:00.279Z,16.3
2022-10-13T13:15:00.301Z,16.2
2022-10-13T13:20:00.234Z,16.2
2022-10-13T13:25:00.241Z,16.2
2022-10-13T13:30:00.275Z,16.2
2022-10-13T13:35:00.263Z,16.1
2022-10-13T13:40:00.228Z,16
2022-10-13T13:45:00.238Z,16
2022-10-13T13:50:00.272Z,15.9
2022-10-13T13:55:00.237Z,15.8
2022-10-13T14:00:00.256Z,15.8
2022-10-13T14:05:00.263Z,15.6
2022-10-13T14:10:02.124Z,15.5
2022-10-13T14:15:00.254Z,15.4
2022-10-13T14:20:00.233Z,15.3
2022-10-13T14:25:00.295Z,15.2
2022-10-13T14:30:00.257Z,15.2
2022-10-13T14:35:00.238Z,15.1
2022-10-13T14:40:00.369Z,15
2022-10-13T14:45:00.246Z,15
2022-10-13T14:50:00.350Z,15
2022-10-13T14:55:00.261Z,14.9
2022-10-13T15:00:02.097Z,14.9
2022-10-13T15:05:00.241Z,14.8
2022-10-13T15:10:05.323Z,14.8
2022-10-13T15:15:00.218Z,14.7
2022-10-13T15:20:00.288Z,14.6
2022-10-13T15:25:00.255Z,14.6
2022-10-13T15:30:00.314Z,14.6
2022-10-13T15:35:00.264Z,14.5
2022-10-13T15:40:00.360Z,14.5
2022-10-13T15:45:11.396Z,14.4
2022-10-13T15:50:00.219Z,14.4
2022-10-13T15:55:00.228Z,14.4
2022-10-13T16:00:00.298Z,14.3
2022-10-13T16:05:00.259Z,14.3
2022-10-13T16:10:00.235Z,14.3
2022-10-13T16:15:00.199Z,14.2
2022-10-13T16:20:00.282Z,14.2
2022-10-13T16:25:00.248Z,14.2
2022-10-13T16:30:00.290Z,14.2
2022-10-13T16:35:00.208Z,14.1
2022-10-13T16:40:00.253Z,14.1
2022-10-13T16:45:00.223Z,14
2022-10-13T16:50:00.253Z,14
2022-10-13T16:55:00.214Z,14
2022-10-13T17:00:00.286Z,13.9
2022-10-13T17:05:00.282Z,13.9
2022-10-13T17:10:00.300Z,13.9
2022-10-13T17:15:00.250Z,13.8
2022-10-13T17:20:00.263Z,13.8
2022-10-13T17:25:00.270Z,13.8
2022-10-13T17:30:00.280Z,13.8
2022-10-13T17:35:00.211Z,13.8
2022-10-13T17:40:00.253Z,13.7
2022-10-13T17:45:00.195Z,13.7
2022-10-13T17:50:00.232Z,13.7
2022-10-13T17:55:00.273Z,13.7
2022-10-13T18:00:00.287Z,13.6
2022-10-13T18:05:00.264Z,13.6
2022-10-13T18:10:00.278Z,13.6
2022-10-13T18:15:00.278Z,13.6
2022-10-13T18:20:00.251Z,13.6
2022-10-13T18:25:00.237Z,13.6
2022-10-13T18:30:00.348Z,13.6
2022-10-13T18:35:00.252Z,13.6
2022-10-13T18:40:00.298Z,13.6
2022-10-13T18:45:00.215Z,13.5
2022-10-13T18:50:00.243Z,13.5
2022-10-13T18:55:00.265Z,13.4
2022-10-13T19:00:00.292Z,13.4
2022-10-13T19:05:00.273Z,13.4
2022-10-13T19:10:00.286Z,13.4
2022-10-13T19:15:00.236Z,13.4
2022-10-13T19:20:00.251Z,13.4
2022-10-13T19:25:00.198Z,13.4
2022-10-13T19:30:00.366Z,13.4
2022-10-13T19:35:00.304Z,13.4
2022-10-13T19:40:00.287Z,13.3
2022-10-13T19:45:00.283Z,13.3
2022-10-13T19:50:00.291Z,13.3
2022-10-13T19:55:00.309Z,13.3
2022-10-13T20:00:00.296Z,13.3
2022-10-13T20:05:00.768Z,13.3
2022-10-13T20:10:00.272Z,13.3
2022-10-13T20:15:00.197Z,13.3
2022-10-13T20:20:00.232Z,13.3
2022-10-13T20:25:00.200Z,13.3
2022-10-13T20:30:00.255Z,13.3
2022-10-13T20:35:00.219Z,13.3
2022-10-13T20:40:00.276Z,13.3
2022-10-13T20:45:00.239Z,13.3
2022-10-13T20:50:00.249Z,13.3
2022-10-13T20:55:00.246Z,13.3
2022-10-13T21:00:00.258Z,13.3
2022-10-13T21:05:00.141Z,13.3
2022-10-13T21:10:00.226Z,13.3
2022-10-13T21:15:00.240Z,13.3
2022-10-13T21:20:00.260Z,13.3
2022-10-13T21:25:00.215Z,13.3
2022-10-13T21:30:00.225Z,13.3
2022-10-13T21:35:00.253Z,13.3
2022-10-13T21:40:00.270Z,13.3
2022-10-13T21:45:00.209Z,13.3
2022-10-13T21:50:00.258Z,13.3
2022-10-13T21:55:00.146Z,13.3
2022-10-13T22:00:00.602Z,13.2
2022-10-13T22:05:00.281Z,13.2
2022-10-13T22:10:00.218Z,13.2
2022-10-13T22:15:00.215Z,13.2
2022-10-13T22:20:00.244Z,13.2
2022-10-13T22:25:00.139Z,13.2
2022-10-13T22:30:00.283Z,13.2
2022-10-13T22:35:00.205Z,13.2
2022-10-13T22:40:00.195Z,13.2
2022-10-13T22:45:00.220Z,13.1
2022-10-13T22:50:00.389Z,13.1
2022-10-13T22:55:00.206Z,13.1
2022-10-13T23:00:00.233Z,13.1
2022-10-13T23:05:00.145Z,13
2022-10-13T23:10:00.276Z,13
2022-10-13T23:15:00.187Z,13
2022-10-13T23:20:00.223Z,13
2022-10-13T23:25:00.178Z,13
2022-10-13T23:30:00.238Z,13
2022-10-13T23:35:00.223Z,13
2022-10-13T23:40:00.201Z,13
2022-10-13T23:45:00.148Z,13
2022-10-13T23:50:00.230Z,13
2022-10-13T23:55:00.141Z,12.9
